createdAt,value
2022-12-15T00:01:48.642Z,65071.44
2022-12-15T00:07:11.342Z,65033.72
2022-12-15T00:12:33.079Z,65094.47
2022-12-15T00:17:54.826Z,65144.88
2022-12-15T00:23:24.710Z,65174.53
2022-12-15T00:28:46.366Z,65107.56
2022-12-15T00:34:07.921Z,65179.00
2022-12-15T00:39:13.486Z,65225.16
2022-12-15T00:44:20.778Z,65219.28
2022-12-15T00:49:44.466Z,65242.81
2022-12-15T00:55:07.023Z,65225.16
2022-12-15T01:00:29.858Z,65255.13
2022-12-15T01:05:52.479Z,65253.88
2022-12-15T01:11:19.428Z,65361.38
2022-12-15T01:16:41.164Z,65407.38
2022-12-15T01:21:48.796Z,65358.19
2022-12-15T01:26:54.828Z,65398.75
2022-12-15T01:31:59.118Z,65460.97
2022-12-15T01:37:03.366Z,65439.13
2022-12-15T01:42:13.765Z,65312.38
2022-12-15T01:47:20.945Z,65248.53
2022-12-15T01:52:24.985Z,65236.22
2022-12-15T01:57:32.961Z,65284.31
2022-12-15T02:02:40.509Z,65318.34
2022-12-15T02:07:45.330Z,65328.81
2022-12-15T02:13:01.417Z,65328.81
2022-12-15T02:18:14.711Z,65327.31
2022-12-15T02:24:11.742Z,65316.22
2022-12-15T02:29:42.251Z,65293.88
2022-12-15T02:34:53.107Z,65320.38
2022-12-15T02:39:57.338Z,65333.69
2022-12-15T02:45:06.595Z,65277.38
2022-12-15T02:50:29.322Z,65257.06
2022-12-15T02:55:42.676Z,65326.78
2022-12-15T03:00:54.055Z,65342.94
2022-12-15T03:06:02.441Z,65300.06
2022-12-15T03:11:06.883Z,65340.50
2022-12-15T03:16:11.088Z,65325.19
2022-12-15T03:21:16.628Z,65282.59
2022-12-15T03:26:20.726Z,65249.19
2022-12-15T03:31:25.444Z,65352.22
2022-12-15T03:36:31.013Z,65373.06
2022-12-15T03:41:35.615Z,65299.63
2022-12-15T03:46:39.838Z,65352.75
2022-12-15T03:51:46.194Z,65326.69
2022-12-15T03:56:50.352Z,65299.97
2022-12-15T04:01:54.957Z,65255.56
2022-12-15T04:07:00.525Z,65300.69
2022-12-15T04:12:05.203Z,65374.25
2022-12-15T04:17:09.620Z,65291.22
2022-12-15T04:22:18.051Z,65270.88
2022-12-15T04:27:39.870Z,65319.41
2022-12-15T04:33:02.485Z,65323.47
2022-12-15T04:38:25.805Z,65253.34
2022-12-15T04:43:47.592Z,65244.81
2022-12-15T04:49:09.232Z,65243.13
2022-12-15T04:54:32.165Z,65315.47
2022-12-15T04:59:54.122Z,65290.47
2022-12-15T05:05:15.777Z,65271.31
2022-12-15T05:10:39.683Z,65235.78
2022-12-15T05:16:01.346Z,65188.97
2022-12-15T05:21:25.529Z,65209.09
2022-12-15T05:26:52.648Z,65255.03
2022-12-15T05:31:58.756Z,65313.03
2022-12-15T05:37:05.004Z,65324.66
2022-12-15T05:42:10.535Z,65269.72
2022-12-15T05:47:15.346Z,65319.22
2022-12-15T05:52:19.509Z,65283.97
2022-12-15T05:57:25.074Z,65262.38
2022-12-15T06:02:29.761Z,65292.16
2022-12-15T06:07:35.081Z,65181.13
2022-12-15T06:12:40.824Z,65219.28
2022-12-15T06:17:44.726Z,65322.09
2022-12-15T06:22:53.699Z,65394.59
2022-12-15T06:28:01.914Z,65214.50
2022-12-15T06:33:08.933Z,65227.81
2022-12-15T06:38:16.340Z,65203.25
2022-12-15T06:43:25.188Z,65297.41
2022-12-15T06:48:32.579Z,65244.19
2022-12-15T06:53:41.604Z,65202.69
2022-12-15T06:58:52.205Z,65197.50
2022-12-15T07:04:00.590Z,65178.47
2022-12-15T07:09:08.491Z,65217.69
2022-12-15T07:14:13.942Z,65188.97
2022-12-15T07:19:18.024Z,65210.03
2022-12-15T07:24:22.508Z,65163.56
2022-12-15T07:29:28.171Z,65201.75
2022-12-15T07:34:32.089Z,65179.53
2022-12-15T07:39:36.315Z,65219.41
2022-12-15T07:44:41.830Z,65305.59
2022-12-15T07:49:45.856Z,65241.84
2022-12-15T07:54:49.872Z,65231.63
2022-12-15T07:59:55.438Z,65312.91
2022-12-15T08:04:59.684Z,65273.44
2022-12-15T08:10:03.906Z,65304.84
2022-12-15T08:15:11.853Z,65346.34
2022-12-15T08:20:16.361Z,65271.00
2022-12-15T08:25:20.572Z,65335.72
2022-12-15T08:30:26.376Z,65402.28
2022-12-15T08:35:55.630Z,65390.13
2022-12-15T08:40:55.022Z,65340.94
2022-12-15T08:46:01.475Z,65382.03
2022-12-15T08:51:05.927Z,65375.63
2022-12-15T08:56:12.871Z,65324.66
2022-12-15T09:01:23.630Z,65303.47
2022-12-15T09:06:30.565Z,65369.47
2022-12-15T09:11:35.367Z,65389.91
2022-12-15T09:16:42.462Z,65375.22
2022-12-15T09:21:46.842Z,65377.44
2022-12-15T09:26:51.032Z,65295.38
2022-12-15T09:31:56.546Z,65349.22
2022-12-15T09:37:00.639Z,65398.13
2022-12-15T09:42:05.048Z,65449.34
2022-12-15T09:47:19.938Z,65382.03
2022-12-15T09:52:29.062Z,65369.03
2022-12-15T09:57:44.193Z,65417.41
2022-12-15T10:03:10.956Z,65351.69
2022-12-15T10:08:15.916Z,65342.63
2022-12-15T10:13:23.620Z,65403.97
2022-12-15T10:18:38.602Z,65324.13
2022-12-15T10:23:43.001Z,65313.88
2022-12-15T10:29:10.067Z,65377.97
2022-12-15T10:34:25.413Z,65294.94
2022-12-15T10:39:39.557Z,65286.41
2022-12-15T10:44:50.370Z,65286.31
2022-12-15T10:50:22.471Z,65348.59
2022-12-15T10:55:37.310Z,65368.41
2022-12-15T11:00:41.496Z,65314.84
2022-12-15T11:05:53.317Z,65299.63
2022-12-15T11:11:16.722Z,65243.34
2022-12-15T11:16:21.259Z,65315.59
2022-12-15T11:21:31.661Z,65300.59
2022-12-15T11:26:45.296Z,65209.19
2022-12-15T11:31:51.804Z,65143.28
2022-12-15T11:37:10.489Z,65294.84
2022-12-15T11:42:21.584Z,65202.38
2022-12-15T11:47:36.227Z,65221.31
2022-12-15T11:52:58.553Z,65298.13
2022-12-15T11:58:30.112Z,65258.56
2022-12-15T12:03:49.483Z,65267.06
2022-12-15T12:09:14.517Z,65286.84
2022-12-15T12:14:31.356Z,65266.72
2022-12-15T12:19:43.591Z,65202.16
2022-12-15T12:24:58.043Z,65309.09
2022-12-15T12:30:06.421Z,65293.66
2022-12-15T12:40:57.465Z,65220.47
2022-12-15T12:46:07.312Z,65201.75
2022-12-15T12:51:23.215Z,65317.09
2022-12-15T12:56:41.507Z,65268.13
2022-12-15T13:01:45.847Z,65376.69
2022-12-15T13:07:04.620Z,65345.94
2022-12-15T13:18:17.051Z,65347.09
2022-12-15T13:23:41.861Z,65385.88
2022-12-15T13:28:51.901Z,65343.38
2022-12-15T13:34:15.393Z,65143.69
2022-12-15T13:39:56.259Z,65133.69
2022-12-15T13:45:36.802Z,65179.00
2022-12-15T13:50:51.346Z,65162.31
2022-12-15T13:56:05.777Z,65243.22
2022-12-15T14:01:23.935Z,65353.28
2022-12-15T14:06:36.898Z,65314.53
2022-12-15T14:11:53.284Z,65216.19
2022-12-15T14:17:01.503Z,65230.88
2022-12-15T14:22:27.033Z,65200.03
2022-12-15T14:27:33.984Z,65168.69
2022-12-15T14:32:38.399Z,65136.88
2022-12-15T14:37:44.131Z,65240.16
2022-12-15T14:42:50.644Z,65185.59
2022-12-15T14:53:24.428Z,65132.53
2022-12-15T14:58:36.609Z,65148.56
2022-12-15T15:03:05.020Z,65366.28
2022-12-15T15:03:05.230Z,65334.84
2022-12-15T15:03:15.288Z,65128.38
2022-12-15T15:03:42.560Z,65173.03
2022-12-15T15:08:50.368Z,65192.19
2022-12-15T15:13:56.869Z,65276.00
2022-12-15T15:19:04.603Z,65345.94
2022-12-15T15:24:25.042Z,65310.91
2022-12-15T15:29:38.476Z,65177.94
2022-12-15T15:34:42.912Z,65187.38
2022-12-15T15:39:49.636Z,65197.38
2022-12-15T15:44:53.767Z,65108.31
2022-12-15T15:50:01.366Z,65122.44
2022-12-15T15:55:10.663Z,65149.53
2022-12-15T16:00:20.357Z,65127.31
2022-12-15T16:05:25.166Z,65102.88
2022-12-15T16:10:31.195Z,65098.00
2022-12-15T16:15:35.563Z,65108.84
2022-12-15T16:20:41.295Z,65221.44
2022-12-15T16:25:51.063Z,65220.34
2022-12-15T16:30:55.758Z,65145.94
2022-12-15T16:36:00.292Z,65125.19
2022-12-15T16:41:09.314Z,65211.84
2022-12-15T16:46:14.875Z,65285.16
2022-12-15T16:51:28.781Z,65281.44
2022-12-15T16:56:34.715Z,65296.00
2022-12-15T17:01:40.385Z,65283.13
2022-12-15T17:06:44.522Z,65310.59
2022-12-15T17:11:50.468Z,65343.69
2022-12-15T17:16:55.095Z,65247.91
2022-12-15T17:21:59.710Z,65256.09
2022-12-15T17:27:09.484Z,65299.00
2022-12-15T17:32:14.560Z,65353.28
2022-12-15T17:37:22.412Z,65365.00
2022-12-15T17:42:53.612Z,65380.44
2022-12-15T17:48:34.505Z,65350.19
2022-12-15T17:54:11.178Z,65231.41
2022-12-15T17:59:21.299Z,65289.59
2022-12-15T18:04:25.672Z,65357.66
2022-12-15T18:09:30.328Z,65402.59
2022-12-15T18:14:37.672Z,65353.28
2022-12-15T18:19:45.071Z,65205.47
2022-12-15T18:24:49.656Z,65151.13
2022-12-15T18:29:55.118Z,65332.63
2022-12-15T18:35:18.520Z,65337.31
2022-12-15T18:40:28.261Z,65259.41
2022-12-15T18:45:33.856Z,65074.00
2022-12-15T18:50:37.840Z,65098.66
2022-12-15T18:55:42.399Z,65072.19
2022-12-15T19:00:48.777Z,65102.25
2022-12-15T19:06:00.837Z,65144.00
2022-12-15T19:11:08.104Z,65136.16
2022-12-15T19:16:18.187Z,65144.97
2022-12-15T19:21:44.284Z,65108.19
2022-12-15T19:26:48.329Z,65151.34
2022-12-15T19:31:54.888Z,65086.94
2022-12-15T19:37:00.473Z,65059.09
2022-12-15T19:42:10.111Z,65023.22
2022-12-15T19:47:18.497Z,65073.66
2022-12-15T19:52:22.721Z,65054.44
2022-12-15T19:57:26.649Z,65062.50
2022-12-15T20:02:32.312Z,65046.38
2022-12-15T20:07:36.740Z,65039.06
2022-12-15T20:12:40.649Z,65058.16
2022-12-15T20:17:46.605Z,65005.81
2022-12-15T20:22:54.757Z,64989.69
2022-12-15T20:28:00.376Z,64963.13
2022-12-15T20:33:06.664Z,64944.03
2022-12-15T20:38:27.647Z,64946.16
2022-12-15T20:43:34.772Z,64986.47
2022-12-15T20:48:41.064Z,64920.59
2022-12-15T20:53:44.981Z,64943.50
2022-12-15T20:58:49.035Z,64958.25
2022-12-15T21:03:56.924Z,64919.84
2022-12-15T21:09:00.814Z,64986.47
2022-12-15T21:14:05.002Z,64940.44
2022-12-15T21:19:20.228Z,64925.34
2022-12-15T21:24:27.126Z,64910.72
2022-12-15T21:29:37.729Z,64916.97
2022-12-15T21:34:43.014Z,64947.63
2022-12-15T21:39:47.206Z,64937.66
2022-12-15T21:44:51.102Z,64946.03
2022-12-15T21:49:57.551Z,64974.81
2022-12-15T21:55:01.546Z,64976.09
2022-12-15T22:00:10.812Z,65011.97
2022-12-15T22:05:20.240Z,64958.47
2022-12-15T22:10:25.762Z,64990.72
2022-12-15T22:15:30.362Z,65022.78
2022-12-15T22:20:35.786Z,64995.50
2022-12-15T22:25:39.757Z,64976.28
2022-12-15T22:30:43.804Z,64968.97
2022-12-15T22:35:50.186Z,64936.72
2022-12-15T22:40:56.424Z,64985.41
2022-12-15T22:46:01.622Z,64969.72
2022-12-15T22:51:07.973Z,64942.53
2022-12-15T22:56:22.790Z,64944.44
2022-12-15T23:01:27.274Z,64965.25
2022-12-15T23:06:32.836Z,64908.59
2022-12-15T23:11:39.749Z,64946.81
2022-12-15T23:16:45.360Z,64965.69
2022-12-15T23:21:50.726Z,64956.88
2022-12-15T23:26:55.601Z,64988.19
2022-12-15T23:31:59.756Z,64940.44
2022-12-15T23:37:05.170Z,64950.59
2022-12-15T23:42:11.012Z,64997.22
2022-12-15T23:47:15.132Z,64943.19
2022-12-15T23:52:20.871Z,64944.16
2022-12-15T23:57:24.792Z,64948.91
